KEWK/EWK METAR and TAF weather

Enter ICAO airport designator
Station Type Date Time Source
KEWK METAR 2019/04/25 07:56 UTC NOAA

KEWK 250756Z AUTO 27003KT 10SM CLR 11/10 A2978 RMK AO2 SLP077 T01110100


Station Type Date Time Source
KEWK Decoded METAR 2019/04/25 07:56 UTC NOAA

Newton, Newton City/County Airport, KS, United States (KEWK) 38-03N 097-17W
Apr 25, 2019 - 03:56 AM EDT / 2019.04.25 0756 UTC
Wind: from the W (270 degrees) at 3 MPH (3 KT):0
Visibility: 10 mile(s):0
Sky conditions: clear
Temperature: 52.0 F (11.1 C)
Dew Point: 50.0 F (10.0 C)
Relative Humidity: 92%
Pressure (altimeter): 29.78 in. Hg (1008 hPa)
ob: KEWK 250756Z AUTO 27003KT 10SM CLR 11/10 A2978 RMK AO2 SLP077 T01110100
cycle: 8

Station Type Date Time Source
KEWK TAF UTC NOAA

Error!

Example: see airport list